Time;durP1;ratioP1;P1;durP2;ratioP2;P2;SDS_P1;SDS_P2;PMS_P1;PMS_P2;Temp;Humidity;BMP_temperature;BMP_pressure;BME280_temperature;BME280_humidity;BME280_pressure;Samples;Min_cycle;Max_cycle;Signal;HPM_P1;HPM_P2
2022/09/20 00:01:16;;;;;;;0.13;0.13;;;12.70;99.90;;;;;;4955195;28;20181;-89
2022/09/20 00:03:47;;;;;;;0.20;0.20;;;12.70;99.90;;;;;;4970975;28;20219;-88
2022/09/20 00:06:16;;;;;;;1.00;0.40;;;12.80;99.90;;;;;;4969854;28;20303;-89
2022/09/20 00:08:43;;;;;;;0.30;0.30;;;12.80;99.90;;;;;;4970393;28;20588;-88
2022/09/20 00:11:23;;;;;;;4.07;0.70;;;12.90;99.90;;;;;;4985932;28;20235;-89
2022/09/20 00:13:53;;;;;;;0.50;0.50;;;13.00;99.90;;;;;;4970636;28;20216;-89
2022/09/20 00:16:28;;;;;;;0.30;0.30;;;13.00;99.90;;;;;;4969114;28;20192;-88
2022/09/20 00:18:56;;;;;;;0.93;0.27;;;13.00;99.90;;;;;;4970635;28;20235;-89
2022/09/20 00:21:27;;;;;;;0.20;0.20;;;13.00;99.90;;;;;;4969924;28;20634;-89
2022/09/20 00:23:53;;;;;;;0.50;0.40;;;13.00;99.90;;;;;;4970844;28;20224;-89
2022/09/20 00:26:20;;;;;;;1.60;0.97;;;13.00;99.90;;;;;;4953485;28;20212;-89
2022/09/20 00:28:47;;;;;;;0.53;0.53;;;13.00;99.90;;;;;;4969754;28;20772;-89
2022/09/20 00:31:14;;;;;;;3.30;0.60;;;13.00;99.90;;;;;;4954254;28;20216;-89
2022/09/20 00:36:26;;;;;;;1.47;1.47;;;13.20;99.90;;;;;;4968464;28;20217;-89
2022/09/20 00:39:00;;;;;;;0.20;0.20;;;13.10;99.90;;;;;;4953945;28;20682;-89
2022/09/20 00:41:26;;;;;;;0.20;0.20;;;13.10;99.90;;;;;;4969684;28;20279;-89
2022/09/20 00:43:52;;;;;;;2.53;0.83;;;13.00;99.90;;;;;;4953366;28;20216;-89
2022/09/20 00:46:21;;;;;;;2.50;0.70;;;12.90;99.90;;;;;;4953523;28;20197;-89
2022/09/20 00:48:50;;;;;;;4.97;0.60;;;12.90;99.90;;;;;;4986263;28;20657;-89
2022/09/20 00:51:24;;;;;;;4.00;1.07;;;12.90;99.90;;;;;;4953129;28;20244;-89
2022/09/20 00:53:51;;;;;;;0.40;0.40;;;12.90;99.90;;;;;;4985303;28;20217;-89
2022/09/20 00:56:27;;;;;;;1.43;0.40;;;13.00;99.90;;;;;;4953431;28;20320;-89
2022/09/20 00:59:18;;;;;;;0.20;0.20;;;13.00;99.90;;;;;;4969482;28;20220;-89
2022/09/20 01:01:48;;;;;;;2.37;0.53;;;12.90;99.90;;;;;;4963639;28;20209;-90
2022/09/20 01:04:15;;;;;;;2.10;0.30;;;12.90;99.90;;;;;;4969725;28;20215;-89
2022/09/20 01:06:44;;;;;;;0.40;0.40;;;12.90;99.90;;;;;;4969720;28;20206;-89
2022/09/20 01:09:09;;;;;;;0.77;0.50;;;12.80;99.90;;;;;;4952573;28;20232;-89
2022/09/20 01:11:36;;;;;;;1.50;0.30;;;12.90;99.90;;;;;;4952827;28;20579;-89
2022/09/20 01:14:02;;;;;;;0.50;0.50;;;12.90;99.90;;;;;;4952913;28;20256;-89
2022/09/20 01:16:30;;;;;;;0.20;0.20;;;13.00;99.90;;;;;;4952357;28;20196;-89
2022/09/20 01:18:59;;;;;;;0.33;0.33;;;13.00;99.90;;;;;;4969458;28;20648;-90
2022/09/20 01:21:26;;;;;;;2.87;0.83;;;12.90;99.90;;;;;;4968744;28;20231;-89
2022/09/20 01:24:46;;;;;;;0.50;0.50;;;12.90;99.90;;;;;;4985142;28;20221;-89
2022/09/20 01:27:22;;;;;;;0.50;0.50;;;13.00;99.90;;;;;;4932030;29;20335;-88
2022/09/20 01:30:28;;;;;;;1.60;0.57;;;13.00;99.90;;;;;;4969398;28;20220;-89
2022/09/20 01:33:22;;;;;;;0.20;0.20;;;13.00;99.90;;;;;;4917113;29;20222;-89
2022/09/20 01:35:52;;;;;;;5.77;0.67;;;13.00;99.90;;;;;;4961803;28;20724;-89
2022/09/20 01:38:39;;;;;;;0.20;0.20;;;13.00;99.90;;;;;;4984405;28;20204;-89
2022/09/20 01:41:14;;;;;;;3.90;0.77;;;13.00;99.90;;;;;;4969548;28;20208;-89
2022/09/20 01:43:53;;;;;;;3.93;0.33;;;13.00;99.90;;;;;;4968592;28;20299;-89
2022/09/20 01:46:32;;;;;;;0.67;0.47;;;13.00;99.90;;;;;;4968327;28;20908;-89
2022/09/20 01:49:30;;;;;;;0.30;0.30;;;13.00;99.90;;;;;;4984758;28;20642;-89
2022/09/20 01:52:13;;;;;;;0.47;0.47;;;12.90;99.90;;;;;;4967760;28;20220;-89
2022/09/20 01:55:10;;;;;;;2.43;0.47;;;13.00;99.90;;;;;;4984751;28;20225;-88
2022/09/20 01:57:53;;;;;;;0.73;0.50;;;13.00;99.90;;;;;;4968113;28;20228;-89
2022/09/20 02:00:25;;;;;;;0.20;0.20;;;12.90;99.90;;;;;;4983739;28;20323;-89
2022/09/20 02:03:05;;;;;;;0.23;0.23;;;12.90;99.90;;;;;;4968363;28;20220;-88
2022/09/20 02:05:55;;;;;;;1.93;0.73;;;12.80;99.90;;;;;;4968082;28;20315;-89
2022/09/20 02:08:37;;;;;;;0.30;0.30;;;12.60;99.90;;;;;;4966737;28;20252;-89
2022/09/20 02:11:16;;;;;;;0.50;0.50;;;12.50;99.90;;;;;;4984575;28;20228;-89
2022/09/20 02:14:12;;;;;;;0.60;0.40;;;12.50;99.90;;;;;;4984134;28;20327;-89
2022/09/20 02:16:55;;;;;;;3.03;0.33;;;12.50;99.90;;;;;;4968273;28;20347;-89
2022/09/20 02:19:41;;;;;;;4.37;0.60;;;12.50;99.90;;;;;;4968111;28;20188;-89
2022/09/20 02:22:34;;;;;;;0.70;0.50;;;12.50;99.90;;;;;;4968554;28;20188;-88
2022/09/20 02:25:15;;;;;;;0.43;0.27;;;12.40;99.90;;;;;;4984048;28;20243;-88
2022/09/20 02:27:52;;;;;;;0.27;0.27;;;12.30;99.90;;;;;;4968189;28;20218;-89
2022/09/20 02:30:43;;;;;;;0.63;0.37;;;12.40;99.90;;;;;;4967505;28;20220;-89
2022/09/20 02:33:19;;;;;;;0.47;0.30;;;12.60;99.90;;;;;;4967243;28;20574;-88
2022/09/20 02:36:21;;;;;;;0.33;0.20;;;12.70;99.90;;;;;;4983852;28;20212;-89
2022/09/20 02:39:13;;;;;;;8.33;0.40;;;12.80;99.90;;;;;;4983918;28;20220;-89
2022/09/20 02:41:57;;;;;;;1.13;0.40;;;12.80;99.90;;;;;;4951988;28;21098;-89
2022/09/20 02:44:38;;;;;;;0.10;0.10;;;12.70;99.90;;;;;;4967590;28;20231;-89
2022/09/20 02:47:22;;;;;;;4.90;0.30;;;12.70;99.90;;;;;;4967318;28;20254;-89
2022/09/20 02:50:22;;;;;;;0.47;0.40;;;12.70;99.90;;;;;;4967490;28;20833;-89
2022/09/20 02:52:54;;;;;;;5.83;0.40;;;12.60;99.90;;;;;;4983483;28;20225;-89
2022/09/20 02:55:46;;;;;;;0.30;0.30;;;12.60;99.90;;;;;;4983256;28;20596;-89
2022/09/20 02:58:43;;;;;;;0.10;0.10;;;12.60;99.90;;;;;;4984542;28;20272;-89
2022/09/20 03:01:28;;;;;;;1.03;0.23;;;12.60;99.90;;;;;;4971810;28;20228;-89
2022/09/20 03:04:07;;;;;;;2.47;0.27;;;12.70;99.90;;;;;;4987462;28;20197;-89
2022/09/20 03:06:55;;;;;;;4.13;0.50;;;12.70;99.90;;;;;;4971251;28;20224;-89
2022/09/20 03:09:32;;;;;;;1.80;0.40;;;12.70;99.90;;;;;;4986743;28;20299;-89
2022/09/20 03:12:12;;;;;;;0.30;0.30;;;12.70;99.90;;;;;;4987246;28;20216;-89
2022/09/20 03:15:13;;;;;;;3.17;1.07;;;12.60;99.90;;;;;;4972408;28;20351;-89
2022/09/20 03:17:41;;;;;;;3.60;0.60;;;12.50;99.90;;;;;;4955966;28;20239;-89
2022/09/20 03:20:32;;;;;;;2.23;0.57;;;12.50;99.90;;;;;;4971006;28;20228;-89
2022/09/20 03:23:22;;;;;;;6.53;0.60;;;12.40;99.90;;;;;;4972338;28;20217;-89
2022/09/20 03:25:50;;;;;;;2.10;0.60;;;12.40;99.90;;;;;;4970719;28;20221;-89
2022/09/20 03:29:13;;;;;;;3.13;0.63;;;12.50;99.90;;;;;;4987234;28;20308;-89
2022/09/20 03:32:12;;;;;;;0.20;0.20;;;12.50;99.90;;;;;;4915554;29;20586;-89
2022/09/20 03:35:14;;;;;;;1.00;0.40;;;12.50;99.90;;;;;;4912106;29;20225;-89
2022/09/20 03:37:59;;;;;;;4.40;0.60;;;12.50;99.90;;;;;;4951613;28;20208;-88
2022/09/20 03:41:06;;;;;;;1.50;0.30;;;12.60;99.90;;;;;;4971545;28;20247;-89
2022/09/20 03:43:46;;;;;;;1.10;0.80;;;12.50;99.90;;;;;;4970159;28;20188;-90
2022/09/20 03:46:20;;;;;;;5.73;0.57;;;12.60;99.90;;;;;;4970904;28;20538;-89
2022/09/20 03:48:52;;;;;;;1.00;0.30;;;12.60;99.90;;;;;;4986942;28;20287;-89
2022/09/20 03:51:55;;;;;;;2.13;0.63;;;12.60;99.90;;;;;;4970022;28;20232;-89
2022/09/20 03:54:44;;;;;;;0.50;0.50;;;12.60;99.90;;;;;;4970062;28;20315;-89
2022/09/20 03:57:30;;;;;;;0.40;0.40;;;12.60;99.90;;;;;;4970262;28;20304;-89
2022/09/20 04:00:22;;;;;;;0.50;0.50;;;12.60;99.90;;;;;;4970363;28;20220;-89
2022/09/20 04:03:16;;;;;;;0.37;0.37;;;12.70;99.90;;;;;;4970228;28;20697;-89
2022/09/20 04:06:22;;;;;;;2.57;0.77;;;12.70;99.90;;;;;;4970171;28;20220;-89
2022/09/20 04:09:13;;;;;;;2.50;0.93;;;12.70;99.90;;;;;;4970125;28;20240;-90
2022/09/20 04:12:06;;;;;;;0.77;0.40;;;12.80;99.90;;;;;;4969517;28;20228;-89
2022/09/20 04:14:43;;;;;;;0.20;0.20;;;12.80;99.90;;;;;;4986088;28;20615;-89
2022/09/20 04:17:33;;;;;;;1.87;0.40;;;12.80;99.90;;;;;;4970158;28;20231;-89
2022/09/20 04:20:14;;;;;;;0.87;0.70;;;12.80;99.90;;;;;;4970004;28;20811;-90
2022/09/20 04:22:42;;;;;;;0.40;0.40;;;12.80;99.90;;;;;;4970199;28;20223;-89
2022/09/20 04:25:20;;;;;;;2.07;0.50;;;12.80;99.90;;;;;;4954844;28;20716;-90
2022/09/20 04:27:48;;;;;;;2.40;0.50;;;12.80;99.90;;;;;;4970190;28;20215;-89
2022/09/20 04:30:17;;;;;;;1.17;0.50;;;12.80;99.90;;;;;;4969502;28;20575;-89
2022/09/20 04:33:10;;;;;;;0.40;0.40;;;12.80;99.90;;;;;;4986054;28;20716;-89
2022/09/20 04:38:39;;;;;;;0.43;0.30;;;12.60;99.90;;;;;;4970669;28;20236;-89
2022/09/20 04:41:59;;;;;;;0.20;0.10;;;12.60;99.90;;;;;;4953915;28;20239;-89
2022/09/20 04:44:40;;;;;;;0.77;0.70;;;12.60;99.90;;;;;;4967819;28;20216;-89
2022/09/20 04:47:43;;;;;;;2.47;0.30;;;12.60;99.90;;;;;;4967300;28;20262;-89
2022/09/20 04:50:27;;;;;;;2.53;0.30;;;12.70;99.90;;;;;;4969648;28;20228;-90
2022/09/20 04:53:22;;;;;;;0.30;0.30;;;12.70;99.90;;;;;;4986094;28;20238;-90
2022/09/20 04:56:01;;;;;;;0.37;0.37;;;12.70;99.90;;;;;;4963526;28;20367;-89
2022/09/20 04:58:52;;;;;;;1.27;0.43;;;12.70;99.90;;;;;;4985140;28;20629;-89
2022/09/20 05:01:23;;;;;;;2.73;0.50;;;12.70;99.90;;;;;;4968827;28;20197;-89
2022/09/20 05:03:55;;;;;;;2.13;0.57;;;12.70;99.90;;;;;;4969817;28;20187;-88
2022/09/20 05:06:58;;;;;;;2.13;0.33;;;12.60;99.90;;;;;;4969054;28;20590;-88
2022/09/20 05:10:01;;;;;;;0.13;0.13;;;12.60;99.90;;;;;;4983977;28;20709;-93
2022/09/20 05:12:54;;;;;;;1.73;0.30;;;12.60;99.90;;;;;;4969565;28;20224;-89
2022/09/20 05:15:42;;;;;;;0.50;0.40;;;12.60;99.90;;;;;;4984712;28;20212;-90
2022/09/20 05:18:32;;;;;;;4.63;1.10;;;12.60;99.90;;;;;;4968278;28;20208;-91
2022/09/20 05:21:34;;;;;;;2.20;0.40;;;12.50;99.90;;;;;;4984590;28;20221;-90
2022/09/20 05:24:20;;;;;;;0.67;0.30;;;12.40;99.90;;;;;;4968911;28;20230;-90
2022/09/20 05:27:18;;;;;;;3.63;0.70;;;12.40;99.90;;;;;;4954365;28;20224;-89
2022/09/20 05:29:57;;;;;;;3.80;0.97;;;12.30;99.90;;;;;;4965844;28;20371;-90
2022/09/20 05:32:54;;;;;;;0.30;0.30;;;12.20;99.90;;;;;;4968520;28;20249;-89
2022/09/20 05:35:30;;;;;;;0.30;0.30;;;12.20;99.90;;;;;;4985082;28;20216;-89
2022/09/20 05:38:29;;;;;;;0.30;0.30;;;12.30;99.90;;;;;;4960609;28;20295;-90
2022/09/20 05:41:28;;;;;;;3.00;0.93;;;12.60;99.90;;;;;;4968350;28;20205;-90
2022/09/20 05:44:16;;;;;;;1.83;0.53;;;12.90;99.90;;;;;;4968102;28;20220;-90
2022/09/20 05:47:13;;;;;;;0.67;0.63;;;13.00;99.90;;;;;;4984574;28;20255;-91
2022/09/20 05:50:03;;;;;;;0.63;0.30;;;13.10;99.90;;;;;;4984546;28;21378;-87
2022/09/20 05:52:49;;;;;;;1.40;0.73;;;13.20;99.90;;;;;;4984257;28;20193;-87
2022/09/20 05:55:42;;;;;;;0.50;0.47;;;13.20;99.90;;;;;;4976333;28;20731;-87
2022/09/20 05:58:36;;;;;;;0.60;0.53;;;13.20;99.90;;;;;;4982904;28;20250;-87
2022/09/20 06:01:18;;;;;;;1.17;0.50;;;13.20;99.90;;;;;;4968130;28;20208;-88
2022/09/20 06:03:54;;;;;;;0.50;0.50;;;13.20;99.90;;;;;;4959756;28;20693;-87
2022/09/20 06:06:38;;;;;;;0.43;0.40;;;13.20;99.90;;;;;;4967412;28;20638;-86
2022/09/20 06:09:37;;;;;;;3.03;0.53;;;13.10;99.90;;;;;;4968988;28;20240;-86
2022/09/20 06:12:24;;;;;;;1.03;0.90;;;13.30;99.90;;;;;;4931351;29;20233;-86
2022/09/20 06:15:02;;;;;;;0.43;0.40;;;13.30;99.90;;;;;;4962420;28;20233;-88
2022/09/20 06:17:38;;;;;;;2.67;0.70;;;13.30;99.90;;;;;;4967407;28;20247;-87
2022/09/20 06:20:17;;;;;;;1.10;0.73;;;13.40;99.90;;;;;;4956805;28;20235;-88
2022/09/20 06:22:46;;;;;;;2.73;0.43;;;13.40;99.90;;;;;;4964699;28;20739;-91
2022/09/20 06:25:20;;;;;;;8.20;1.17;;;13.40;99.90;;;;;;4968384;28;20195;-91
2022/09/20 06:28:12;;;;;;;0.30;0.30;;;13.50;99.90;;;;;;4968664;28;20200;-94
2022/09/20 06:30:48;;;;;;;0.23;0.23;;;13.60;99.90;;;;;;4967867;28;20229;-90
2022/09/20 06:33:24;;;;;;;4.03;0.47;;;13.60;99.90;;;;;;4966548;28;20224;-90
2022/09/20 06:42:09;;;;;;;1.73;0.43;;;13.90;99.90;;;;;;4972612;28;20216;-90
2022/09/20 06:44:40;;;;;;;2.37;0.53;;;14.00;99.90;;;;;;4930459;28;20306;-92
2022/09/20 06:47:08;;;;;;;0.67;0.23;;;14.00;99.90;;;;;;4953714;28;20220;-90
2022/09/20 06:49:34;;;;;;;3.93;0.40;;;14.10;99.90;;;;;;4969281;28;20231;-90
2022/09/20 06:52:05;;;;;;;7.57;0.67;;;14.40;99.90;;;;;;4971108;28;20207;-89
2022/09/20 06:54:31;;;;;;;3.23;0.50;;;16.30;99.90;;;;;;4953564;28;20220;-89
2022/09/20 06:57:01;;;;;;;0.57;0.30;;;18.60;99.90;;;;;;4953472;28;20669;-90
2022/09/20 06:59:27;;;;;;;0.83;0.43;;;19.50;99.90;;;;;;4972659;28;20233;-90
2022/09/20 07:01:53;;;;;;;1.77;0.87;;;20.60;99.90;;;;;;4956131;28;20315;-89
2022/09/20 07:04:21;;;;;;;3.47;0.77;;;21.20;99.90;;;;;;4956438;28;20188;-88
2022/09/20 07:06:47;;;;;;;5.53;1.07;;;21.10;99.90;;;;;;4956468;28;20227;-89
2022/09/20 07:09:12;;;;;;;2.23;0.60;;;22.10;99.90;;;;;;4956583;28;20254;-90
2022/09/20 07:11:38;;;;;;;6.67;1.00;;;22.10;99.90;;;;;;4956773;28;20709;-91
2022/09/20 07:14:06;;;;;;;3.60;0.40;;;20.90;99.90;;;;;;4959684;28;20251;-90
2022/09/20 07:16:35;;;;;;;2.37;0.60;;;21.90;99.90;;;;;;4958673;28;20224;-90
2022/09/20 07:19:01;;;;;;;1.03;0.73;;;21.30;99.90;;;;;;4959053;28;20185;-91
2022/09/20 07:21:27;;;;;;;1.40;0.47;;;21.90;99.90;;;;;;4951030;28;20690;-90
2022/09/20 07:23:53;;;;;;;2.07;0.43;;;22.00;99.90;;;;;;4934667;28;20223;-89
2022/09/20 07:26:25;;;;;;;1.40;0.50;;;22.00;99.90;;;;;;4951528;28;20215;-90
2022/09/20 07:28:51;;;;;;;2.07;0.73;;;21.60;99.90;;;;;;4966707;28;20273;-90
2022/09/20 07:31:18;;;;;;;2.37;0.50;;;19.80;99.90;;;;;;4951553;28;20308;-89
2022/09/20 07:33:44;;;;;;;2.47;0.60;;;18.60;99.90;;;;;;4983633;28;20913;-93
2022/09/20 07:36:13;;;;;;;3.43;0.47;;;18.20;99.90;;;;;;4966785;28;20240;-89
2022/09/20 07:38:40;;;;;;;2.47;0.50;;;18.20;99.90;;;;;;4951983;28;20686;-91
2022/09/20 07:41:07;;;;;;;0.40;0.40;;;17.30;99.90;;;;;;4935440;28;20209;-89
2022/09/20 07:43:34;;;;;;;1.57;0.60;;;16.70;99.90;;;;;;4927505;28;20224;-90
2022/09/20 07:45:59;;;;;;;2.20;0.33;;;16.50;99.90;;;;;;4954222;28;20198;-90
2022/09/20 07:48:29;;;;;;;0.40;0.40;;;16.40;99.90;;;;;;4954498;28;20213;-89
2022/09/20 07:51:05;;;;;;;2.57;0.40;;;16.10;99.90;;;;;;4969951;28;20889;-88
2022/09/20 07:53:32;;;;;;;1.33;0.50;;;15.80;99.90;;;;;;4960295;28;20215;-89
2022/09/20 07:56:00;;;;;;;0.67;0.60;;;15.70;99.90;;;;;;4954475;28;20223;-90
2022/09/20 07:58:28;;;;;;;1.07;0.43;;;15.80;99.90;;;;;;4987021;28;20192;-89
2022/09/20 08:00:56;;;;;;;1.90;0.50;;;15.90;99.90;;;;;;4986234;28;20192;-89
2022/09/20 08:03:22;;;;;;;2.37;0.87;;;15.80;99.90;;;;;;4986813;28;20220;-90
2022/09/20 08:05:49;;;;;;;0.77;0.40;;;15.70;99.90;;;;;;4954139;28;20220;-89
2022/09/20 08:08:18;;;;;;;0.40;0.40;;;15.50;99.90;;;;;;4969771;28;20282;-90
2022/09/20 08:10:45;;;;;;;0.57;0.30;;;15.30;99.90;;;;;;4954272;28;20239;-89
2022/09/20 08:13:12;;;;;;;2.43;0.50;;;15.20;99.90;;;;;;4954958;28;20652;-89
2022/09/20 08:15:38;;;;;;;1.23;0.30;;;15.20;99.90;;;;;;4954015;28;20263;-88
2022/09/20 08:18:06;;;;;;;0.37;0.30;;;15.10;99.90;;;;;;4954297;28;20286;-89
2022/09/20 08:20:37;;;;;;;0.83;0.40;;;15.10;99.90;;;;;;4949338;28;20223;-90
2022/09/20 08:23:04;;;;;;;1.20;0.20;;;15.20;99.90;;;;;;4953015;28;20237;-90
2022/09/20 08:25:30;;;;;;;1.03;0.77;;;15.20;99.90;;;;;;4970052;28;20250;-89
2022/09/20 08:27:56;;;;;;;1.60;1.50;;;15.20;99.90;;;;;;4955123;28;20193;-88
2022/09/20 08:30:22;;;;;;;0.40;0.40;;;15.40;99.90;;;;;;4954001;28;20224;-89
2022/09/20 08:32:49;;;;;;;1.80;0.40;;;15.60;99.90;;;;;;4954185;28;20200;-90
2022/09/20 08:35:16;;;;;;;0.67;0.40;;;16.30;99.90;;;;;;4970010;28;20216;-89
2022/09/20 08:37:44;;;;;;;0.30;0.30;;;16.90;99.90;;;;;;4977161;28;20216;-90
2022/09/20 08:40:14;;;;;;;0.67;0.50;;;16.90;99.90;;;;;;4953729;28;20204;-89
2022/09/20 08:42:43;;;;;;;3.40;0.50;;;16.70;99.90;;;;;;4954232;28;20587;-91
2022/09/20 08:45:21;;;;;;;2.53;0.90;;;16.70;99.90;;;;;;4968800;28;20223;-90
2022/09/20 08:47:52;;;;;;;0.40;0.40;;;16.50;99.90;;;;;;4985513;28;20231;-90
2022/09/20 08:50:18;;;;;;;1.03;0.30;;;17.10;99.90;;;;;;4970859;28;20328;-85
2022/09/20 08:52:51;;;;;;;0.30;0.30;;;18.10;99.90;;;;;;4968413;28;20217;-85
2022/09/20 08:55:23;;;;;;;1.37;0.60;;;19.00;99.90;;;;;;4968049;28;20271;-86
2022/09/20 08:57:55;;;;;;;4.37;0.80;;;19.20;99.90;;;;;;4961620;28;20284;-84
2022/09/20 09:00:25;;;;;;;1.27;0.43;;;18.80;99.90;;;;;;4966144;28;20219;-85
2022/09/20 09:02:56;;;;;;;4.03;1.43;;;17.90;99.90;;;;;;4974975;28;20824;-84
2022/09/20 09:05:32;;;;;;;6.20;0.60;;;17.50;99.90;;;;;;4989869;28;20275;-84
2022/09/20 09:08:15;;;;;;;0.63;0.40;;;17.20;99.90;;;;;;4970458;28;20693;-83
2022/09/20 09:11:08;;;;;;;1.50;0.80;;;17.00;99.90;;;;;;4963506;28;20232;-83
2022/09/20 09:13:46;;;;;;;2.00;0.30;;;17.00;99.90;;;;;;4953365;28;20224;-84
2022/09/20 09:16:14;;;;;;;0.60;0.60;;;17.20;99.90;;;;;;4954676;29;20181;-83
2022/09/20 09:18:43;;;;;;;4.00;0.50;;;17.10;99.90;;;;;;4966917;28;20219;-84
2022/09/20 09:21:36;;;;;;;0.47;0.30;;;17.10;99.90;;;;;;4972148;28;20225;-84
2022/09/20 09:24:08;;;;;;;3.50;0.40;;;16.90;99.90;;;;;;4972355;28;20232;-89
2022/09/20 09:26:39;;;;;;;1.27;0.40;;;16.90;99.90;;;;;;4973486;28;20677;-91
2022/09/20 09:29:22;;;;;;;0.40;0.40;;;17.10;99.90;;;;;;4954947;28;20684;-90
2022/09/20 09:31:51;;;;;;;1.27;0.47;;;17.60;99.90;;;;;;4939500;28;20748;-91
2022/09/20 09:34:24;;;;;;;1.43;0.40;;;18.20;99.90;;;;;;4970912;28;20178;-89
2022/09/20 09:36:50;;;;;;;0.50;0.30;;;18.00;99.90;;;;;;4955433;29;20174;-89
2022/09/20 09:39:32;;;;;;;3.33;0.40;;;17.60;99.90;;;;;;4938891;29;20229;-89
2022/09/20 09:41:59;;;;;;;1.13;0.57;;;17.50;99.90;;;;;;4954559;28;20632;-88
2022/09/20 09:44:32;;;;;;;1.07;0.33;;;17.30;99.90;;;;;;4939109;29;20296;-88
2022/09/20 09:46:59;;;;;;;3.27;0.57;;;17.00;99.90;;;;;;4965654;28;20209;-91
2022/09/20 09:49:34;;;;;;;0.60;0.40;;;16.80;99.90;;;;;;4973986;28;20185;-91
2022/09/20 09:52:10;;;;;;;0.97;0.50;;;16.70;99.90;;;;;;4971164;28;20355;-87
2022/09/20 09:54:38;;;;;;;0.60;0.50;;;16.50;99.90;;;;;;4956734;28;20691;-86
2022/09/20 09:57:18;;;;;;;1.73;0.67;;;16.30;99.90;;;;;;4964507;28;20673;-89
2022/09/20 09:59:53;;;;;;;0.77;0.40;;;16.20;99.90;;;;;;4957847;28;20225;-89
2022/09/20 10:02:30;;;;;;;1.23;0.67;;;16.20;99.90;;;;;;4974680;28;20232;-89
2022/09/20 10:05:10;;;;;;;1.20;0.40;;;16.10;99.90;;;;;;4955173;28;20247;-90
2022/09/20 10:08:04;;;;;;;0.40;0.40;;;16.00;99.90;;;;;;4992712;28;20221;-89
2022/09/20 10:10:47;;;;;;;1.00;0.40;;;16.20;99.90;;;;;;4971986;28;20569;-88
2022/09/20 10:13:42;;;;;;;1.07;0.60;;;17.40;99.90;;;;;;4977303;28;20172;-88
2022/09/20 10:16:30;;;;;;;3.47;0.43;;;17.50;99.90;;;;;;4976105;28;20204;-88
2022/09/20 10:19:12;;;;;;;1.30;0.67;;;18.40;99.90;;;;;;4976552;28;20200;-88
2022/09/20 10:21:55;;;;;;;1.80;0.50;;;18.30;99.90;;;;;;4988860;28;20217;-88
2022/09/20 10:24:45;;;;;;;0.30;0.30;;;17.80;99.90;;;;;;4962783;28;20209;-87
2022/09/20 10:27:18;;;;;;;0.47;0.47;;;17.30;99.90;;;;;;4956627;28;20682;-88
2022/09/20 10:29:47;;;;;;;0.57;0.30;;;18.40;99.90;;;;;;4956671;28;20709;-87
2022/09/20 10:32:46;;;;;;;1.73;0.60;;;19.60;99.90;;;;;;4961536;28;20267;-88
2022/09/20 10:35:38;;;;;;;2.53;0.33;;;18.60;99.90;;;;;;4970372;28;20219;-89
2022/09/20 10:38:20;;;;;;;2.20;0.43;;;17.90;99.90;;;;;;4963441;28;20375;-88
2022/09/20 10:44:17;;;;;;;0.80;0.80;;;17.50;99.90;;;;;;4977218;28;20266;-88
2022/09/20 10:47:05;;;;;;;1.23;0.67;;;17.90;99.90;;;;;;4974698;28;20220;-89
2022/09/20 10:50:13;;;;;;;3.30;0.63;;;17.30;99.90;;;;;;4969798;28;20268;-88
2022/09/20 10:52:48;;;;;;;2.93;0.53;;;17.00;99.90;;;;;;4966574;28;20216;-87
2022/09/20 10:55:14;;;;;;;1.40;0.40;;;16.70;99.90;;;;;;4975675;28;20211;-88
2022/09/20 10:57:44;;;;;;;0.37;0.30;;;16.70;99.90;;;;;;4972968;28;20248;-87
2022/09/20 11:00:31;;;;;;;4.30;0.40;;;16.80;99.90;;;;;;4973764;28;20221;-87
2022/09/20 11:03:21;;;;;;;0.30;0.30;;;16.80;99.90;;;;;;4972789;28;20227;-87
2022/09/20 11:06:06;;;;;;;0.20;0.20;;;16.60;99.90;;;;;;4962098;28;20217;-87
2022/09/20 11:08:36;;;;;;;2.33;0.50;;;16.90;99.90;;;;;;4953276;28;20297;-87
2022/09/20 11:11:15;;;;;;;0.70;0.37;;;17.10;99.90;;;;;;4970474;28;20231;-87
2022/09/20 11:13:46;;;;;;;1.33;0.70;;;17.20;99.90;;;;;;4969703;28;20235;-87
2022/09/20 11:16:16;;;;;;;6.43;0.87;;;17.00;99.90;;;;;;4954153;29;20240;-89
2022/09/20 11:19:03;;;;;;;1.07;0.70;;;17.00;99.90;;;;;;4959354;28;20295;-87
2022/09/20 11:21:38;;;;;;;0.90;0.70;;;17.70;99.90;;;;;;4976632;28;20695;-88
2022/09/20 11:24:12;;;;;;;2.20;0.60;;;18.70;99.90;;;;;;4973259;28;20217;-88
2022/09/20 11:26:54;;;;;;;0.40;0.40;;;19.10;99.90;;;;;;4976459;28;20359;-88
2022/09/20 11:29:31;;;;;;;2.20;0.70;;;18.40;99.90;;;;;;4978103;28;20213;-88
2022/09/20 11:32:14;;;;;;;2.00;0.70;;;18.00;99.90;;;;;;4976182;28;20205;-87
2022/09/20 11:34:52;;;;;;;0.57;0.57;;;17.60;99.90;;;;;;4973204;28;20213;-89
2022/09/20 11:37:19;;;;;;;1.33;0.53;;;17.60;99.90;;;;;;4965223;28;20176;-87
2022/09/20 11:39:54;;;;;;;0.73;0.40;;;17.80;99.90;;;;;;4956464;28;20185;-88
2022/09/20 11:42:38;;;;;;;4.70;0.67;;;18.20;99.90;;;;;;4959989;28;20217;-87
2022/09/20 11:45:04;;;;;;;9.13;0.90;;;19.20;99.90;;;;;;4974706;28;20217;-88
2022/09/20 11:47:45;;;;;;;1.17;0.70;;;19.60;99.90;;;;;;4959971;28;20283;-87
2022/09/20 11:50:31;;;;;;;5.03;0.93;;;19.20;99.90;;;;;;4988585;28;20240;-87
2022/09/20 11:53:06;;;;;;;0.40;0.40;;;18.90;99.90;;;;;;4975891;28;20216;-87
2022/09/20 11:55:41;;;;;;;0.63;0.63;;;18.00;99.90;;;;;;4975587;28;20192;-88
2022/09/20 11:58:11;;;;;;;1.03;0.50;;;17.60;99.90;;;;;;4976424;28;20179;-88
2022/09/20 12:00:41;;;;;;;0.87;0.87;;;17.80;99.90;;;;;;4975763;28;20315;-88
2022/09/20 12:03:36;;;;;;;0.87;0.50;;;18.00;99.90;;;;;;4972658;28;20682;-87
2022/09/20 12:06:05;;;;;;;3.43;0.60;;;18.10;99.90;;;;;;4956192;28;21082;-87
2022/09/20 12:08:40;;;;;;;3.50;0.77;;;18.30;99.90;;;;;;4955757;28;20237;-87
2022/09/20 12:11:13;;;;;;;0.77;0.43;;;18.30;99.90;;;;;;4970005;28;20840;-88
2022/09/20 12:13:41;;;;;;;3.37;0.80;;;17.90;99.90;;;;;;4973896;28;20220;-88
2022/09/20 12:16:13;;;;;;;3.73;0.70;;;17.00;99.90;;;;;;4970095;28;20552;-89
2022/09/20 12:18:47;;;;;;;2.63;0.47;;;16.90;99.90;;;;;;4969685;28;20218;-88
2022/09/20 12:21:15;;;;;;;4.07;0.30;;;17.10;99.90;;;;;;4971387;28;20220;-89
2022/09/20 12:23:42;;;;;;;2.70;1.13;;;17.20;99.90;;;;;;4970029;28;20219;-87
2022/09/20 12:26:20;;;;;;;0.40;0.30;;;17.30;99.90;;;;;;4969380;28;20587;-89
2022/09/20 12:28:51;;;;;;;0.87;0.50;;;17.50;99.90;;;;;;4969340;28;20223;-89
2022/09/20 12:31:28;;;;;;;1.40;0.33;;;17.20;99.90;;;;;;4984519;28;20205;-90
2022/09/20 12:34:09;;;;;;;1.83;0.63;;;17.20;99.90;;;;;;4970566;28;20200;-89
2022/09/20 12:36:45;;;;;;;5.33;0.53;;;17.10;99.90;;;;;;4985518;28;20220;-88
2022/09/20 12:39:11;;;;;;;0.37;0.37;;;17.20;99.90;;;;;;4968686;28;20755;-89
2022/09/20 12:41:48;;;;;;;0.30;0.30;;;17.10;99.90;;;;;;4969625;28;20225;-89
2022/09/20 12:44:35;;;;;;;1.43;0.53;;;17.30;99.90;;;;;;4969356;28;20220;-89
2022/09/20 12:47:10;;;;;;;0.30;0.30;;;17.30;99.90;;;;;;4985576;28;20251;-89
2022/09/20 12:52:49;;;;;;;1.93;1.07;;;17.50;99.90;;;;;;4970390;28;20204;-91
2022/09/20 12:55:39;;;;;;;0.23;0.23;;;17.60;99.90;;;;;;4987580;28;20189;-88
2022/09/20 12:58:14;;;;;;;1.27;0.30;;;17.50;99.90;;;;;;4988825;28;20192;-85
2022/09/20 13:01:08;;;;;;;0.30;0.30;;;17.60;99.90;;;;;;4972896;28;20764;-85
2022/09/20 13:03:40;;;;;;;1.30;0.43;;;17.70;99.90;;;;;;4971476;28;20228;-86
2022/09/20 13:06:05;;;;;;;3.17;0.40;;;17.50;99.90;;;;;;4972051;28;20231;-86
2022/09/20 13:08:53;;;;;;;0.40;0.40;;;17.60;99.90;;;;;;4971458;28;20772;-87
2022/09/20 13:11:25;;;;;;;5.30;0.50;;;17.50;99.90;;;;;;4970960;28;20835;-88
2022/09/20 13:14:06;;;;;;;1.50;0.40;;;18.00;99.90;;;;;;4971470;28;20213;-85
2022/09/20 13:16:53;;;;;;;0.40;0.33;;;17.90;99.90;;;;;;4988386;28;20216;-89
2022/09/20 13:19:32;;;;;;;1.80;0.50;;;17.50;99.90;;;;;;4972897;28;20308;-89
2022/09/20 13:22:16;;;;;;;1.27;0.70;;;17.60;99.90;;;;;;4973198;28;20275;-84
2022/09/20 13:24:45;;;;;;;4.03;0.70;;;17.70;99.90;;;;;;4970608;28;20339;-90
2022/09/20 13:27:17;;;;;;;1.23;0.77;;;18.00;99.90;;;;;;4991537;28;20705;-90
2022/09/20 13:29:44;;;;;;;0.67;0.30;;;18.50;99.90;;;;;;4975557;28;20753;-89
2022/09/20 13:32:26;;;;;;;0.40;0.40;;;18.30;99.90;;;;;;4970125;28;20220;-91
2022/09/20 13:35:11;;;;;;;0.30;0.30;;;18.30;99.90;;;;;;4977436;28;20236;-91
2022/09/20 13:37:49;;;;;;;0.50;0.40;;;18.50;99.90;;;;;;4977351;28;20209;-91
2022/09/20 13:40:21;;;;;;;1.10;0.57;;;18.60;99.90;;;;;;4975117;28;20187;-92
2022/09/20 13:42:49;;;;;;;2.47;0.70;;;18.80;99.90;;;;;;4974993;28;20188;-92
2022/09/20 13:45:17;;;;;;;1.80;0.57;;;18.40;99.90;;;;;;4975825;28;20279;-91
2022/09/20 13:47:48;;;;;;;3.10;0.83;;;18.20;99.90;;;;;;4990256;28;20333;-91
2022/09/20 13:50:17;;;;;;;2.73;0.60;;;18.10;99.90;;;;;;4990583;28;20666;-90
2022/09/20 13:52:45;;;;;;;0.60;0.43;;;17.90;99.90;;;;;;4974401;28;20243;-90
2022/09/20 13:55:28;;;;;;;2.33;0.40;;;18.00;99.90;;;;;;4973735;28;20645;-90
2022/09/20 13:57:58;;;;;;;2.80;0.80;;;18.10;99.90;;;;;;4973294;28;20216;-89
2022/09/20 14:00:24;;;;;;;0.30;0.20;;;18.10;99.90;;;;;;4974402;28;20271;-89
2022/09/20 14:02:55;;;;;;;2.13;0.33;;;17.70;99.90;;;;;;4959082;28;20303;-93